Time;durP1;ratioP1;P1;durP2;ratioP2;P2;SDS_P1;SDS_P2;PMS_P1;PMS_P2;Temp;Humidity;BMP_temperature;BMP_pressure;BME280_temperature;BME280_humidity;BME280_pressure;Samples;Min_cycle;Max_cycle;Signal;HPM_P1;HPM_P2
2023/08/17 03:43:04;;;;;;;11.40;6.20;;;;;;;18.66;100.00;100524.34;110625;1249;22522;-49
2023/08/17 03:45:32;;;;;;;13.40;5.80;;;;;;;18.72;100.00;100522.79;110285;1240;22645;-55
2023/08/17 03:47:59;;;;;;;10.10;5.80;;;;;;;18.79;100.00;100520.27;109953;1249;22589;-48
2023/08/17 03:50:28;;;;;;;11.20;5.60;;;;;;;18.84;100.00;100522.41;110576;1249;22513;-50
2023/08/17 03:52:55;;;;;;;8.20;5.80;;;;;;;18.90;100.00;100521.86;110342;1249;24435;-51
2023/08/17 03:55:22;;;;;;;7.00;5.40;;;;;;;18.98;100.00;100522.16;110563;1249;22502;-56
2023/08/17 03:57:49;;;;;;;8.50;5.40;;;;;;;19.06;100.00;100518.19;110408;1249;24186;-54
2023/08/17 04:00:17;;;;;;;13.30;6.60;;;;;;;19.16;100.00;100520.73;110336;1249;25376;-47
2023/08/17 04:02:44;;;;;;;8.90;6.30;;;;;;;19.25;100.00;100519.71;110114;1249;22507;-47
2023/08/17 04:05:14;;;;;;;13.20;5.80;;;;;;;19.35;100.00;100522.77;109855;1249;23866;-48
2023/08/17 04:07:42;;;;;;;7.50;5.90;;;;;;;19.45;100.00;100525.80;109915;1249;22491;-48
2023/08/17 04:10:09;;;;;;;10.30;6.20;;;;;;;19.56;100.00;100525.79;110294;1249;22497;-48
2023/08/17 04:12:36;;;;;;;8.20;5.80;;;;;;;19.66;100.00;100530.58;110786;1249;22497;-56
2023/08/17 04:15:04;;;;;;;8.20;5.80;;;;;;;19.79;100.00;100528.04;110356;1249;22516;-56
2023/08/17 04:17:31;;;;;;;10.30;6.20;;;;;;;19.90;100.00;100528.54;110162;1249;22522;-57
2023/08/17 04:19:58;;;;;;;14.50;7.50;;;;;;;20.01;100.00;100531.84;110807;1249;22515;-56
2023/08/17 04:22:26;;;;;;;15.30;6.20;;;;;;;20.14;100.00;100531.94;110188;1249;26482;-55
2023/08/17 04:24:53;;;;;;;12.90;6.10;;;;;;;20.25;100.00;100530.14;110385;1235;24239;-47
2023/08/17 04:27:20;;;;;;;11.00;6.10;;;;;;;20.38;100.00;100531.77;110021;1249;22541;-55
2023/08/17 04:29:47;;;;;;;9.50;5.70;;;;;;;20.52;100.00;100532.90;109918;1249;22516;-49
2023/08/17 04:32:15;;;;;;;8.90;5.60;;;;;;;20.64;100.00;100532.27;110364;1249;24178;-48
2023/08/17 04:34:43;;;;;;;8.50;5.80;;;;;;;20.76;100.00;100529.31;110223;1249;22519;-57
2023/08/17 04:37:10;;;;;;;7.20;5.50;;;;;;;20.89;100.00;100532.38;110329;1249;23006;-55
2023/08/17 04:39:37;;;;;;;10.50;5.60;;;;;;;21.02;100.00;100536.11;110078;1249;22515;-50
2023/08/17 04:42:05;;;;;;;12.80;5.60;;;;;;;21.15;100.00;100538.43;110427;1249;24211;-48
2023/08/17 04:44:33;;;;;;;6.60;5.40;;;;;;;21.26;100.00;100539.59;109811;1249;24184;-55
2023/08/17 04:47:01;;;;;;;6.30;5.40;;;;;;;21.36;100.00;100544.17;110687;1249;25264;-56
2023/08/17 04:49:28;;;;;;;7.40;5.70;;;;;;;21.46;100.00;100539.72;109717;1249;22499;-49
2023/08/17 04:51:55;;;;;;;15.80;6.30;;;;;;;21.54;100.00;100537.77;110035;1249;22501;-49
2023/08/17 04:54:22;;;;;;;10.10;5.80;;;;;;;21.62;100.00;100539.90;109948;1249;22566;-56
2023/08/17 04:56:50;;;;;;;9.30;5.80;;;;;;;21.69;100.00;100541.02;110201;1249;22560;-55
2023/08/17 04:59:17;;;;;;;7.10;5.60;;;;;;;21.78;100.00;100540.83;111566;1249;22466;-53
2023/08/17 05:01:44;;;;;;;11.00;5.70;;;;;;;21.89;100.00;100538.94;112166;1249;22968;-54
2023/08/17 05:04:11;;;;;;;6.40;5.80;;;;;;;22.00;98.90;100536.88;111151;1249;22529;-47
2023/08/17 05:06:38;;;;;;;7.50;4.90;;;;;;;22.09;97.46;100538.29;111123;1249;23044;-56
2023/08/17 05:09:05;;;;;;;9.10;5.20;;;;;;;22.17;96.43;100539.39;112205;1249;23203;-56
2023/08/17 05:11:34;;;;;;;7.50;4.50;;;;;;;22.24;95.65;100539.02;110234;1249;25033;-56
2023/08/17 05:14:01;;;;;;;15.60;5.40;;;;;;;22.32;94.95;100538.16;110022;1249;22528;-49
2023/08/17 05:16:29;;;;;;;6.30;5.00;;;;;;;22.39;94.35;100540.70;112176;1249;22519;-50
2023/08/17 05:18:58;;;;;;;7.50;5.50;;;;;;;22.45;93.68;100541.11;110663;1249;25056;-56
2023/08/17 05:21:25;;;;;;;7.20;4.90;;;;;;;22.53;93.48;100541.11;110699;1249;22554;-49
2023/08/17 05:23:52;;;;;;;11.60;5.00;;;;;;;22.65;93.05;100542.90;110659;1249;22523;-49
2023/08/17 05:26:19;;;;;;;9.50;5.30;;;;;;;22.77;91.72;100540.55;111135;1249;22610;-49
2023/08/17 05:28:46;;;;;;;8.50;5.10;;;;;;;22.86;90.78;100539.05;111015;1249;22536;-55
2023/08/17 05:31:13;;;;;;;8.60;5.20;;;;;;;22.96;89.87;100538.80;111264;1249;22508;-50
2023/08/17 05:33:42;;;;;;;9.30;5.10;;;;;;;23.03;89.25;100538.12;111120;1249;22409;-48
2023/08/17 05:36:09;;;;;;;12.70;5.20;;;;;;;23.10;88.70;100541.84;112794;1249;23138;-54
2023/08/17 05:38:36;;;;;;;6.00;4.80;;;;;;;23.19;88.21;100540.40;111708;1249;22530;-48
2023/08/17 05:41:05;;;;;;;7.40;4.80;;;;;;;23.27;87.87;100540.66;112460;1249;23151;-49
2023/08/17 05:43:32;;;;;;;8.80;5.00;;;;;;;23.39;87.41;100541.16;112838;1249;22430;-47
2023/08/17 05:46:00;;;;;;;11.00;5.50;;;;;;;23.53;86.59;100541.88;112564;1249;22471;-53
2023/08/17 05:48:27;;;;;;;10.70;5.00;;;;;;;23.70;85.83;100539.98;112981;1249;22424;-56
2023/08/17 05:50:57;;;;;;;6.50;4.30;;;;;;;23.84;84.81;100540.18;112959;1249;23191;-48
2023/08/17 05:53:24;;;;;;;9.70;4.70;;;;;;;23.96;84.17;100541.68;113017;1249;22380;-62
2023/08/17 05:55:51;;;;;;;9.40;4.50;;;;;;;24.08;82.89;100540.16;113006;1249;22515;-57
2023/08/17 05:58:18;;;;;;;6.10;4.30;;;;;;;24.19;81.90;100536.05;112702;1249;25285;-60
2023/08/17 06:00:45;;;;;;;10.30;4.80;;;;;;;24.32;81.39;100534.30;111306;1249;23231;-61
2023/08/17 06:03:12;;;;;;;7.30;4.40;;;;;;;24.43;80.30;100533.89;111797;1249;22516;-54
2023/08/17 06:05:40;;;;;;;11.30;5.00;;;;;;;24.57;80.03;100534.06;110562;1249;22670;-57
2023/08/17 06:08:07;;;;;;;9.20;4.80;;;;;;;24.72;79.79;100538.39;110374;1249;22525;-60
2023/08/17 06:10:35;;;;;;;5.10;4.60;;;;;;;24.87;79.32;100533.29;110777;1249;23288;-59
2023/08/17 06:13:02;;;;;;;11.20;5.00;;;;;;;25.02;78.78;100536.40;110557;1249;24274;-59
2023/08/17 06:15:29;;;;;;;8.40;4.60;;;;;;;25.12;77.20;100532.98;111312;1249;23312;-55
2023/08/17 06:17:56;;;;;;;8.30;4.70;;;;;;;25.19;76.26;100535.40;110675;1249;22495;-61
2023/08/17 06:20:23;;;;;;;12.20;5.00;;;;;;;25.29;75.82;100538.28;112188;1249;22435;-59
2023/08/17 06:22:50;;;;;;;10.70;4.60;;;;;;;25.34;74.97;100538.30;111271;1249;22312;-60
2023/08/17 06:25:17;;;;;;;5.70;4.80;;;;;;;25.40;74.60;100534.38;112620;1249;22419;-60
2023/08/17 06:27:44;;;;;;;8.70;4.40;;;;;;;25.50;74.61;100532.25;112625;1249;25308;-56
2023/08/17 06:30:12;;;;;;;11.90;4.90;;;;;;;25.61;74.43;100531.92;112093;1249;25301;-60
2023/08/17 06:32:39;;;;;;;14.60;4.70;;;;;;;25.68;73.40;100535.77;112980;1249;22262;-59
2023/08/17 06:35:07;;;;;;;6.40;4.50;;;;;;;25.75;73.43;100530.81;112955;1248;23086;-55
2023/08/17 06:37:34;;;;;;;6.50;5.00;;;;;;;25.79;73.31;100535.73;112960;1249;22792;-58
2023/08/17 06:40:03;;;;;;;9.00;5.20;;;;;;;25.85;72.56;100528.55;112965;1249;23017;-56
2023/08/17 06:42:31;;;;;;;9.20;4.60;;;;;;;25.93;72.12;100533.30;112960;1249;23008;-56
2023/08/17 06:44:58;;;;;;;6.10;4.70;;;;;;;25.97;71.78;100526.43;111796;1249;22403;-55
2023/08/17 06:47:25;;;;;;;9.10;4.30;;;;;;;26.05;71.86;100532.92;111621;1249;22406;-55
2023/08/17 06:49:52;;;;;;;7.10;4.70;;;;;;;26.13;71.86;100531.90;112799;1249;22374;-57
2023/08/17 06:52:19;;;;;;;16.00;5.40;;;;;;;26.16;71.52;100532.06;112949;1249;23138;-60
2023/08/17 06:54:46;;;;;;;8.20;4.70;;;;;;;26.21;71.75;100529.94;111555;1249;23296;-60
2023/08/17 06:57:13;;;;;;;5.90;4.50;;;;;;;26.34;71.12;100529.38;112788;1249;22425;-55
2023/08/17 06:59:40;;;;;;;8.30;4.60;;;;;;;26.47;70.75;100530.00;112980;1249;22393;-55
2023/08/17 07:02:07;;;;;;;8.10;5.10;;;;;;;26.61;70.53;100532.71;112672;1249;22470;-60
2023/08/17 07:04:34;;;;;;;6.00;4.00;;;;;;;26.69;69.40;100536.48;112245;1249;22557;-55
2023/08/17 07:07:01;;;;;;;5.10;4.10;;;;;;;26.77;69.12;100531.67;111384;1241;22408;-56
2023/08/17 07:09:28;;;;;;;7.70;4.20;;;;;;;26.86;68.39;100531.80;113026;1249;22375;-56
2023/08/17 07:11:56;;;;;;;6.50;4.20;;;;;;;26.87;68.12;100526.91;112968;1233;22960;-55
2023/08/17 07:14:23;;;;;;;6.60;4.30;;;;;;;26.85;68.21;100523.85;112032;1249;23608;-56
2023/08/17 07:16:50;;;;;;;11.90;4.40;;;;;;;26.85;67.93;100529.06;112186;1249;22514;-56
2023/08/17 07:19:18;;;;;;;7.50;4.70;;;;;;;26.83;67.89;100530.38;112410;1248;22524;-56
2023/08/17 07:21:46;;;;;;;9.60;4.20;;;;;;;26.85;67.30;100521.71;113006;1248;22375;-56
2023/08/17 07:24:14;;;;;;;7.60;4.50;;;;;;;26.89;67.39;100519.48;112777;1249;25392;-59
2023/08/17 07:26:41;;;;;;;8.00;4.30;;;;;;;26.94;67.05;100521.27;111756;1249;22509;-55
2023/08/17 07:29:08;;;;;;;6.30;3.60;;;;;;;26.99;67.34;100518.27;112972;1249;22219;-60
2023/08/17 07:31:37;;;;;;;7.10;4.30;;;;;;;27.09;66.90;100516.79;112299;1249;171955;-56
2023/08/17 07:34:07;;;;;;;9.80;4.50;;;;;;;27.19;66.83;100517.52;112959;1249;22452;-60
2023/08/17 07:36:34;;;;;;;9.10;3.90;;;;;;;27.29;66.12;100520.27;113006;1249;22149;-55
2023/08/17 07:39:01;;;;;;;5.30;4.00;;;;;;;27.38;66.13;100523.77;112857;1249;22504;-60
2023/08/17 07:41:28;;;;;;;3.90;3.50;;;;;;;27.47;65.84;100519.25;112604;1249;22405;-56
2023/08/17 07:43:56;;;;;;;6.50;4.40;;;;;;;27.56;65.42;100521.69;113001;1249;23250;-56
2023/08/17 07:46:23;;;;;;;7.00;3.80;;;;;;;27.65;65.51;100515.90;112989;1249;22456;-56
2023/08/17 07:48:50;;;;;;;5.20;3.50;;;;;;;27.81;64.93;100523.44;113011;1248;22366;-56
2023/08/17 07:51:17;;;;;;;13.50;3.80;;;;;;;27.98;64.01;100523.17;112973;1249;22384;-56
2023/08/17 07:53:44;;;;;;;6.70;3.70;;;;;;;28.10;62.80;100525.70;112467;1234;25251;-54
2023/08/17 07:56:11;;;;;;;9.00;4.00;;;;;;;28.25;62.60;100523.27;111115;1249;26616;-56
2023/08/17 07:58:38;;;;;;;9.30;4.30;;;;;;;28.36;62.28;100520.17;112211;1249;22472;-60
2023/08/17 08:01:05;;;;;;;5.10;3.70;;;;;;;28.42;61.43;100520.84;112038;1249;22420;-62
2023/08/17 08:03:33;;;;;;;6.30;3.80;;;;;;;28.47;60.91;100521.89;111988;1249;22521;-58
2023/08/17 08:06:00;;;;;;;5.00;3.90;;;;;;;28.57;60.41;100519.17;111665;1249;22502;-60
2023/08/17 08:08:27;;;;;;;6.20;3.20;;;;;;;28.67;59.85;100516.90;111417;1249;22532;-57
2023/08/17 08:10:54;;;;;;;4.00;3.60;;;;;;;28.77;59.60;100518.51;111478;1249;23168;-60
2023/08/17 08:13:21;;;;;;;9.20;3.40;;;;;;;28.86;59.06;100515.48;111109;1249;23119;-59
2023/08/17 08:15:49;;;;;;;9.90;3.90;;;;;;;28.92;59.26;100515.41;110838;1249;22490;-61
2023/08/17 08:18:16;;;;;;;7.90;3.80;;;;;;;29.01;59.16;100510.33;110719;1249;22516;-56
2023/08/17 08:20:43;;;;;;;4.90;3.70;;;;;;;29.08;59.16;100511.94;112619;1249;24595;-60
2023/08/17 08:23:10;;;;;;;4.80;3.30;;;;;;;29.11;58.64;100508.64;112705;1249;22845;-60
2023/08/17 08:25:37;;;;;;;4.80;3.40;;;;;;;29.14;58.25;100510.23;110932;1249;22448;-57
2023/08/17 08:28:04;;;;;;;7.50;3.70;;;;;;;29.10;57.74;100511.62;112946;1249;23210;-57
2023/08/17 08:30:31;;;;;;;7.40;3.90;;;;;;;29.11;57.35;100508.14;112832;1241;24196;-57
2023/08/17 08:32:59;;;;;;;4.60;3.30;;;;;;;29.17;56.91;100506.77;112520;1249;22321;-57
2023/08/17 08:35:26;;;;;;;7.20;3.50;;;;;;;29.26;56.95;100509.16;112989;1249;23209;-56
2023/08/17 08:37:55;;;;;;;8.30;3.40;;;;;;;29.35;56.28;100508.34;112967;1249;22399;-55
2023/08/17 08:40:27;;;;;;;6.00;3.30;;;;;;;29.40;55.73;100506.63;112972;1249;22378;-55
2023/08/17 08:42:54;;;;;;;4.30;2.60;;;;;;;29.47;55.41;100505.59;112968;1249;22435;-54
2023/08/17 08:45:22;;;;;;;6.60;3.30;;;;;;;29.53;53.92;100504.27;112948;1249;23300;-55
2023/08/17 08:47:50;;;;;;;6.00;3.40;;;;;;;29.58;53.42;100504.81;112778;1248;22154;-55
2023/08/17 08:50:18;;;;;;;4.50;3.00;;;;;;;29.66;53.49;100509.02;112986;1249;23074;-55
2023/08/17 08:52:59;;;;;;;7.20;3.10;;;;;;;29.77;52.58;100503.55;112997;1249;22363;-54
2023/08/17 08:55:34;;;;;;;6.80;3.50;;;;;;;29.88;52.06;100504.45;112918;1249;22350;-57
2023/08/17 08:58:04;;;;;;;3.20;2.80;;;;;;;29.98;51.53;100507.45;112974;1249;23277;-56
2023/08/17 09:00:31;;;;;;;6.20;3.10;;;;;;;30.05;51.28;100504.61;111796;1249;25325;-57
2023/08/17 09:02:58;;;;;;;9.20;3.10;;;;;;;30.11;51.00;100505.73;111533;1249;22561;-60
2023/08/17 09:05:26;;;;;;;5.90;2.90;;;;;;;30.10;50.47;100505.63;110651;1249;23599;-56
2023/08/17 09:07:53;;;;;;;9.80;3.70;;;;;;;30.10;50.51;100503.85;109772;1249;23057;-56
2023/08/17 09:10:20;;;;;;;3.80;2.70;;;;;;;30.04;50.61;100505.72;111501;1249;23247;-57
2023/08/17 09:12:47;;;;;;;5.20;3.10;;;;;;;29.96;50.33;100503.52;111673;1234;22677;-61
2023/08/17 09:15:16;;;;;;;4.80;2.90;;;;;;;29.91;50.37;100502.99;110867;1249;25539;-60
2023/08/17 09:17:43;;;;;;;6.30;3.20;;;;;;;29.88;50.15;100506.42;110906;1249;22515;-62
2023/08/17 09:20:11;;;;;;;6.60;3.40;;;;;;;29.90;50.00;100505.77;111072;1249;22541;-61
2023/08/17 09:22:40;;;;;;;4.50;3.00;;;;;;;29.95;50.16;100509.65;110986;1248;24259;-56
2023/08/17 09:25:09;;;;;;;5.70;3.20;;;;;;;30.02;50.25;100502.45;111997;1249;22864;-63
2023/08/17 09:27:39;;;;;;;4.20;3.10;;;;;;;30.08;50.62;100497.73;111502;1249;22958;-60
2023/08/17 09:30:08;;;;;;;4.00;2.90;;;;;;;30.09;50.49;100495.83;112173;1249;22526;-55
2023/08/17 09:32:35;;;;;;;4.40;3.10;;;;;;;30.10;50.66;100500.96;111367;1249;22710;-60
2023/08/17 09:35:05;;;;;;;6.30;3.10;;;;;;;30.13;50.01;100498.58;111375;1249;25242;-56
2023/08/17 09:37:32;;;;;;;6.80;2.80;;;;;;;30.18;49.88;100496.38;110407;1249;23379;-56
2023/08/17 09:39:59;;;;;;;4.50;3.00;;;;;;;30.26;49.79;100497.39;111956;1249;23379;-56
2023/08/17 09:42:27;;;;;;;8.90;2.80;;;;;;;30.35;48.81;100492.73;113028;1249;22458;-60
2023/08/17 09:44:57;;;;;;;5.30;3.20;;;;;;;30.40;48.56;100494.48;112389;1249;22562;-60
2023/08/17 09:47:24;;;;;;;6.50;3.30;;;;;;;30.37;48.19;100495.84;110621;1248;22548;-57
2023/08/17 09:49:52;;;;;;;4.80;2.70;;;;;;;30.31;48.50;100494.16;110561;1249;22557;-61
2023/08/17 09:52:23;;;;;;;3.70;2.50;;;;;;;30.35;48.22;100488.40;111227;1249;22572;-61
2023/08/17 09:54:52;;;;;;;;;;;;;;;30.43;48.18;100494.20;110569;1249;22596;-62
2023/08/17 09:57:19;;;;;;;5.60;2.80;;;;;;;30.42;47.66;100493.56;110934;1249;22680;-56
2023/08/17 09:59:51;;;;;;;3.20;2.50;;;;;;;30.37;47.41;100489.67;110881;1249;22460;-56
2023/08/17 10:02:23;;;;;;;6.50;2.90;;;;;;;30.38;47.43;100488.16;112289;1241;22522;-56
2023/08/17 10:04:54;;;;;;;4.80;2.50;;;;;;;30.42;47.24;100485.50;111516;1249;22825;-61
2023/08/17 10:07:22;;;;;;;9.80;2.90;;;;;;;30.50;47.57;100484.36;112849;1249;23247;-59
2023/08/17 10:09:54;;;;;;;8.90;2.60;;;;;;;30.61;47.87;100485.77;112803;1249;22745;-56
2023/08/17 10:12:21;;;;;;;4.60;2.60;;;;;;;30.72;47.64;100485.13;113057;1249;22365;-61
2023/08/17 10:14:55;;;;;;;10.90;2.80;;;;;;;30.82;47.19;100489.67;112245;1249;25383;-61
2023/08/17 10:17:26;;;;;;;5.40;3.10;;;;;;;30.82;46.99;100493.48;112283;1249;23390;-60
2023/08/17 10:19:58;;;;;;;3.20;2.90;;;;;;;30.77;46.61;100492.46;110910;1249;24168;-60
